sensor_id;sensor_type;location;lat;lon;timestamp;temperature;humidity
43015;DHT22;28637;50.554;7.032;2022-10-22T00:04:47;14.90;99.90
43015;DHT22;28637;50.554;7.032;2022-10-22T00:09:48;14.90;99.90
43015;DHT22;28637;50.554;7.032;2022-10-22T00:14:49;15.00;99.90
43015;DHT22;28637;50.554;7.032;2022-10-22T00:19:50;15.10;99.90
43015;DHT22;28637;50.554;7.032;2022-10-22T00:24:50;15.20;99.90
43015;DHT22;28637;50.554;7.032;2022-10-22T00:29:51;15.20;99.90
43015;DHT22;28637;50.554;7.032;2022-10-22T00:34:52;15.30;99.90
43015;DHT22;28637;50.554;7.032;2022-10-22T00:39:52;15.40;99.90
43015;DHT22;28637;50.554;7.032;2022-10-22T00:50:17;15.60;99.90
43015;DHT22;28637;50.554;7.032;2022-10-22T00:55:19;15.60;99.90
43015;DHT22;28637;50.554;7.032;2022-10-22T01:00:20;15.60;99.90
43015;DHT22;28637;50.554;7.032;2022-10-22T01:05:21;15.60;99.90
43015;DHT22;28637;50.554;7.032;2022-10-22T01:26:12;15.20;99.90
43015;DHT22;28637;50.554;7.032;2022-10-22T01:31:17;15.10;99.90
43015;DHT22;28637;50.554;7.032;2022-10-22T01:36:20;15.00;99.90
43015;DHT22;28637;50.554;7.032;2022-10-22T01:41:21;14.90;99.90
43015;DHT22;28637;50.554;7.032;2022-10-22T01:46:25;14.90;99.90
43015;DHT22;28637;50.554;7.032;2022-10-22T01:51:33;14.90;99.90
43015;DHT22;28637;50.554;7.032;2022-10-22T02:02:29;15.20;99.90
43015;DHT22;28637;50.554;7.032;2022-10-22T02:07:47;15.20;99.90
43015;DHT22;28637;50.554;7.032;2022-10-22T02:12:51;15.20;99.90
43015;DHT22;28637;50.554;7.032;2022-10-22T02:17:55;15.30;99.90
43015;DHT22;28637;50.554;7.032;2022-10-22T02:22:58;15.30;99.90
43015;DHT22;28637;50.554;7.032;2022-10-22T02:33:30;15.40;99.90
43015;DHT22;28637;50.554;7.032;2022-10-22T02:38:31;15.40;99.90
43015;DHT22;28637;50.554;7.032;2022-10-22T02:43:43;15.40;99.90
43015;DHT22;28637;50.554;7.032;2022-10-22T02:48:43;15.40;99.90
43015;DHT22;28637;50.554;7.032;2022-10-22T02:53:44;15.30;99.90
43015;DHT22;28637;50.554;7.032;2022-10-22T02:58:45;15.30;99.90
43015;DHT22;28637;50.554;7.032;2022-10-22T03:03:45;15.20;99.90
43015;DHT22;28637;50.554;7.032;2022-10-22T03:08:46;15.10;99.90
43015;DHT22;28637;50.554;7.032;2022-10-22T03:13:47;14.80;99.90
43015;DHT22;28637;50.554;7.032;2022-10-22T03:18:47;14.80;99.90
43015;DHT22;28637;50.554;7.032;2022-10-22T03:23:48;14.90;99.90
43015;DHT22;28637;50.554;7.032;2022-10-22T03:28:49;14.80;99.90
43015;DHT22;28637;50.554;7.032;2022-10-22T03:33:50;14.90;99.90
43015;DHT22;28637;50.554;7.032;2022-10-22T03:38:50;14.90;99.90
43015;DHT22;28637;50.554;7.032;2022-10-22T03:43:51;14.80;99.90
43015;DHT22;28637;50.554;7.032;2022-10-22T03:48:53;14.90;99.90
43015;DHT22;28637;50.554;7.032;2022-10-22T03:53:54;14.80;99.90
43015;DHT22;28637;50.554;7.032;2022-10-22T03:58:56;14.70;99.90
43015;DHT22;28637;50.554;7.032;2022-10-22T04:03:57;14.50;99.90
43015;DHT22;28637;50.554;7.032;2022-10-22T04:08:58;14.20;99.90
43015;DHT22;28637;50.554;7.032;2022-10-22T04:14:00;14.30;99.90
43015;DHT22;28637;50.554;7.032;2022-10-22T04:19:01;14.30;99.90
43015;DHT22;28637;50.554;7.032;2022-10-22T04:24:01;14.30;99.90
43015;DHT22;28637;50.554;7.032;2022-10-22T04:29:02;14.30;99.90
43015;DHT22;28637;50.554;7.032;2022-10-22T04:34:03;14.40;99.90
43015;DHT22;28637;50.554;7.032;2022-10-22T04:39:04;14.40;99.90
43015;DHT22;28637;50.554;7.032;2022-10-22T04:44:06;14.40;99.90
43015;DHT22;28637;50.554;7.032;2022-10-22T04:49:06;14.40;99.90
43015;DHT22;28637;50.554;7.032;2022-10-22T04:54:07;14.40;99.90
43015;DHT22;28637;50.554;7.032;2022-10-22T04:59:09;14.40;99.90
43015;DHT22;28637;50.554;7.032;2022-10-22T05:04:15;14.40;99.90
43015;DHT22;28637;50.554;7.032;2022-10-22T05:09:18;14.50;99.90
43015;DHT22;28637;50.554;7.032;2022-10-22T05:14:21;14.50;99.90
43015;DHT22;28637;50.554;7.032;2022-10-22T05:19:30;14.50;99.90
43015;DHT22;28637;50.554;7.032;2022-10-22T05:24:32;14.50;99.90
43015;DHT22;28637;50.554;7.032;2022-10-22T05:29:33;14.40;99.90
43015;DHT22;28637;50.554;7.032;2022-10-22T05:34:34;14.40;99.90
43015;DHT22;28637;50.554;7.032;2022-10-22T05:39:35;14.40;99.90
43015;DHT22;28637;50.554;7.032;2022-10-22T05:44:40;14.30;99.90
43015;DHT22;28637;50.554;7.032;2022-10-22T05:49:40;14.20;99.90
43015;DHT22;28637;50.554;7.032;2022-10-22T05:54:41;14.10;99.90
43015;DHT22;28637;50.554;7.032;2022-10-22T05:59:42;14.10;99.90
43015;DHT22;28637;50.554;7.032;2022-10-22T06:04:42;14.10;99.90
43015;DHT22;28637;50.554;7.032;2022-10-22T06:09:43;14.10;99.90
43015;DHT22;28637;50.554;7.032;2022-10-22T06:14:44;14.10;99.90
43015;DHT22;28637;50.554;7.032;2022-10-22T06:19:44;14.10;99.90
43015;DHT22;28637;50.554;7.032;2022-10-22T06:24:45;14.10;99.90
43015;DHT22;28637;50.554;7.032;2022-10-22T06:29:47;14.10;99.90
43015;DHT22;28637;50.554;7.032;2022-10-22T06:34:47;14.10;99.90
43015;DHT22;28637;50.554;7.032;2022-10-22T06:39:49;14.00;99.90
43015;DHT22;28637;50.554;7.032;2022-10-22T06:44:50;14.10;99.90
43015;DHT22;28637;50.554;7.032;2022-10-22T06:49:51;14.10;99.90
43015;DHT22;28637;50.554;7.032;2022-10-22T06:54:51;14.00;99.90
43015;DHT22;28637;50.554;7.032;2022-10-22T06:59:52;14.10;99.90
43015;DHT22;28637;50.554;7.032;2022-10-22T07:04:53;14.10;99.90
43015;DHT22;28637;50.554;7.032;2022-10-22T07:09:53;14.00;99.90
43015;DHT22;28637;50.554;7.032;2022-10-22T07:14:54;14.10;99.90
43015;DHT22;28637;50.554;7.032;2022-10-22T07:19:55;14.10;99.90
43015;DHT22;28637;50.554;7.032;2022-10-22T07:24:55;14.20;99.90
43015;DHT22;28637;50.554;7.032;2022-10-22T07:29:56;14.30;99.90
43015;DHT22;28637;50.554;7.032;2022-10-22T07:35:00;14.40;99.90
43015;DHT22;28637;50.554;7.032;2022-10-22T07:40:01;14.40;99.90
43015;DHT22;28637;50.554;7.032;2022-10-22T07:45:02;14.50;99.90
43015;DHT22;28637;50.554;7.032;2022-10-22T07:50:03;14.60;99.90
43015;DHT22;28637;50.554;7.032;2022-10-22T07:55:04;14.80;99.90
43015;DHT22;28637;50.554;7.032;2022-10-22T08:00:06;14.90;99.90
43015;DHT22;28637;50.554;7.032;2022-10-22T08:05:07;15.00;99.90
43015;DHT22;28637;50.554;7.032;2022-10-22T08:10:10;15.10;99.90
43015;DHT22;28637;50.554;7.032;2022-10-22T08:15:11;15.20;99.90
43015;DHT22;28637;50.554;7.032;2022-10-22T08:20:12;15.20;99.90
43015;DHT22;28637;50.554;7.032;2022-10-22T08:25:12;15.30;99.90
43015;DHT22;28637;50.554;7.032;2022-10-22T08:30:15;15.50;99.90
43015;DHT22;28637;50.554;7.032;2022-10-22T08:35:15;15.50;99.90
43015;DHT22;28637;50.554;7.032;2022-10-22T08:40:30;15.50;99.90
43015;DHT22;28637;50.554;7.032;2022-10-22T08:45:39;15.60;99.90
43015;DHT22;28637;50.554;7.032;2022-10-22T08:50:46;15.70;99.90
43015;DHT22;28637;50.554;7.032;2022-10-22T08:55:48;15.80;99.90
43015;DHT22;28637;50.554;7.032;2022-10-22T09:00:58;16.00;99.90
43015;DHT22;28637;50.554;7.032;2022-10-22T09:16:19;16.00;99.90
43015;DHT22;28637;50.554;7.032;2022-10-22T09:27:01;15.90;99.90
43015;DHT22;28637;50.554;7.032;2022-10-22T09:32:08;15.90;99.90
43015;DHT22;28637;50.554;7.032;2022-10-22T09:37:10;15.90;99.90
43015;DHT22;28637;50.554;7.032;2022-10-22T09:42:15;15.90;99.90
43015;DHT22;28637;50.554;7.032;2022-10-22T09:47:36;16.20;99.90
43015;DHT22;28637;50.554;7.032;2022-10-22T09:52:38;16.60;99.90
43015;DHT22;28637;50.554;7.032;2022-10-22T09:57:39;16.60;99.90
43015;DHT22;28637;50.554;7.032;2022-10-22T10:02:40;16.70;99.90
43015;DHT22;28637;50.554;7.032;2022-10-22T10:07:42;16.80;99.90
43015;DHT22;28637;50.554;7.032;2022-10-22T10:13:09;16.90;99.90
43015;DHT22;28637;50.554;7.032;2022-10-22T10:23:33;16.70;99.90
43015;DHT22;28637;50.554;7.032;2022-10-22T10:55:36;17.30;99.90
43015;DHT22;28637;50.554;7.032;2022-10-22T11:00:46;17.40;99.90
43015;DHT22;28637;50.554;7.032;2022-10-22T11:05:56;17.30;99.90
43015;DHT22;28637;50.554;7.032;2022-10-22T11:11:21;17.10;99.90
43015;DHT22;28637;50.554;7.032;2022-10-22T11:16:39;17.40;99.90
43015;DHT22;28637;50.554;7.032;2022-10-22T11:21:50;17.20;99.90
43015;DHT22;28637;50.554;7.032;2022-10-22T11:27:27;17.30;99.90
43015;DHT22;28637;50.554;7.032;2022-10-22T11:32:26;17.20;99.90
43015;DHT22;28637;50.554;7.032;2022-10-22T11:37:30;17.10;99.90
43015;DHT22;28637;50.554;7.032;2022-10-22T11:42:38;17.10;99.90
43015;DHT22;28637;50.554;7.032;2022-10-22T11:58:43;16.90;99.90
43015;DHT22;28637;50.554;7.032;2022-10-22T12:04:15;17.00;99.90
43015;DHT22;28637;50.554;7.032;2022-10-22T12:09:17;17.40;99.90
43015;DHT22;28637;50.554;7.032;2022-10-22T12:14:23;17.60;99.90
43015;DHT22;28637;50.554;7.032;2022-10-22T12:19:36;17.60;99.90
43015;DHT22;28637;50.554;7.032;2022-10-22T12:24:44;17.70;99.90
43015;DHT22;28637;50.554;7.032;2022-10-22T12:29:45;17.80;99.90
43015;DHT22;28637;50.554;7.032;2022-10-22T12:34:48;17.60;99.90
43015;DHT22;28637;50.554;7.032;2022-10-22T12:39:50;17.50;99.90
43015;DHT22;28637;50.554;7.032;2022-10-22T12:44:54;17.70;99.90
43015;DHT22;28637;50.554;7.032;2022-10-22T12:49:56;17.70;99.90
43015;DHT22;28637;50.554;7.032;2022-10-22T12:54:57;17.80;99.90
43015;DHT22;28637;50.554;7.032;2022-10-22T12:59:58;17.80;99.90
43015;DHT22;28637;50.554;7.032;2022-10-22T13:05:25;17.80;99.90
43015;DHT22;28637;50.554;7.032;2022-10-22T13:10:35;17.80;99.90
43015;DHT22;28637;50.554;7.032;2022-10-22T13:15:37;17.70;99.90
43015;DHT22;28637;50.554;7.032;2022-10-22T13:20:52;17.80;99.90
43015;DHT22;28637;50.554;7.032;2022-10-22T13:26:22;17.90;99.90
43015;DHT22;28637;50.554;7.032;2022-10-22T13:31:29;17.90;99.90
43015;DHT22;28637;50.554;7.032;2022-10-22T13:36:32;18.10;99.90
43015;DHT22;28637;50.554;7.032;2022-10-22T13:41:37;18.10;99.90
43015;DHT22;28637;50.554;7.032;2022-10-22T13:46:38;17.90;99.90
43015;DHT22;28637;50.554;7.032;2022-10-22T13:51:42;18.00;99.90
43015;DHT22;28637;50.554;7.032;2022-10-22T13:56:44;18.80;99.90
43015;DHT22;28637;50.554;7.032;2022-10-22T14:01:44;18.80;99.90
43015;DHT22;28637;50.554;7.032;2022-10-22T14:06:45;18.40;99.90
43015;DHT22;28637;50.554;7.032;2022-10-22T14:11:46;18.20;99.90
43015;DHT22;28637;50.554;7.032;2022-10-22T14:16:47;18.20;99.90
43015;DHT22;28637;50.554;7.032;2022-10-22T14:21:48;20.60;99.90
43015;DHT22;28637;50.554;7.032;2022-10-22T14:26:49;20.50;99.90
43015;DHT22;28637;50.554;7.032;2022-10-22T14:31:50;19.80;99.90
43015;DHT22;28637;50.554;7.032;2022-10-22T14:36:51;19.40;99.90
43015;DHT22;28637;50.554;7.032;2022-10-22T14:41:51;20.50;99.90
43015;DHT22;28637;50.554;7.032;2022-10-22T14:46:52;21.00;99.90
43015;DHT22;28637;50.554;7.032;2022-10-22T14:51:55;22.00;99.90
43015;DHT22;28637;50.554;7.032;2022-10-22T14:56:56;24.10;99.90
43015;DHT22;28637;50.554;7.032;2022-10-22T15:01:56;25.00;97.20
43015;DHT22;28637;50.554;7.032;2022-10-22T15:06:57;26.70;93.30
43015;DHT22;28637;50.554;7.032;2022-10-22T15:11:58;26.80;88.40
43015;DHT22;28637;50.554;7.032;2022-10-22T15:16:59;26.80;87.40
43015;DHT22;28637;50.554;7.032;2022-10-22T15:22:00;26.60;87.50
43015;DHT22;28637;50.554;7.032;2022-10-22T15:27:00;26.70;86.20
43015;DHT22;28637;50.554;7.032;2022-10-22T15:32:02;26.10;85.10
43015;DHT22;28637;50.554;7.032;2022-10-22T15:37:08;25.50;86.40
43015;DHT22;28637;50.554;7.032;2022-10-22T15:42:09;24.40;90.40
43015;DHT22;28637;50.554;7.032;2022-10-22T15:47:10;23.20;91.80
43015;DHT22;28637;50.554;7.032;2022-10-22T15:52:10;22.10;93.90
43015;DHT22;28637;50.554;7.032;2022-10-22T15:57:12;21.20;96.00
43015;DHT22;28637;50.554;7.032;2022-10-22T16:02:12;20.30;98.40
43015;DHT22;28637;50.554;7.032;2022-10-22T16:07:15;19.60;99.90
43015;DHT22;28637;50.554;7.032;2022-10-22T16:12:15;19.00;99.90
43015;DHT22;28637;50.554;7.032;2022-10-22T16:17:16;18.40;99.90
43015;DHT22;28637;50.554;7.032;2022-10-22T16:22:17;17.80;99.90
43015;DHT22;28637;50.554;7.032;2022-10-22T16:27:18;17.40;99.90
43015;DHT22;28637;50.554;7.032;2022-10-22T16:32:18;17.20;99.90
43015;DHT22;28637;50.554;7.032;2022-10-22T16:37:19;16.90;99.90
43015;DHT22;28637;50.554;7.032;2022-10-22T16:42:20;16.60;99.90
43015;DHT22;28637;50.554;7.032;2022-10-22T16:47:21;16.30;99.90
43015;DHT22;28637;50.554;7.032;2022-10-22T16:52:21;15.90;99.90
43015;DHT22;28637;50.554;7.032;2022-10-22T16:57:23;15.60;99.90
43015;DHT22;28637;50.554;7.032;2022-10-22T17:02:24;15.40;99.90
43015;DHT22;28637;50.554;7.032;2022-10-22T17:07:25;15.00;99.90
43015;DHT22;28637;50.554;7.032;2022-10-22T17:12:26;14.80;99.90
43015;DHT22;28637;50.554;7.032;2022-10-22T17:17:27;14.60;99.90
43015;DHT22;28637;50.554;7.032;2022-10-22T17:22:27;14.40;99.90
43015;DHT22;28637;50.554;7.032;2022-10-22T17:27:28;14.20;99.90
43015;DHT22;28637;50.554;7.032;2022-10-22T17:32:28;14.10;99.90
43015;DHT22;28637;50.554;7.032;2022-10-22T17:37:30;14.00;99.90
43015;DHT22;28637;50.554;7.032;2022-10-22T17:42:30;13.80;99.90
43015;DHT22;28637;50.554;7.032;2022-10-22T17:47:31;13.70;99.90
43015;DHT22;28637;50.554;7.032;2022-10-22T17:52:32;13.60;99.90
43015;DHT22;28637;50.554;7.032;2022-10-22T17:57:33;13.60;99.90
43015;DHT22;28637;50.554;7.032;2022-10-22T18:02:33;13.50;99.90
43015;DHT22;28637;50.554;7.032;2022-10-22T18:07:34;13.40;99.90
43015;DHT22;28637;50.554;7.032;2022-10-22T18:12:35;13.40;99.90
43015;DHT22;28637;50.554;7.032;2022-10-22T18:17:36;13.30;99.90
43015;DHT22;28637;50.554;7.032;2022-10-22T18:22:37;13.20;99.90
43015;DHT22;28637;50.554;7.032;2022-10-22T18:27:40;13.10;99.90
43015;DHT22;28637;50.554;7.032;2022-10-22T18:32:41;13.10;99.90
43015;DHT22;28637;50.554;7.032;2022-10-22T18:37:42;13.10;99.90
43015;DHT22;28637;50.554;7.032;2022-10-22T18:42:42;13.00;99.90
43015;DHT22;28637;50.554;7.032;2022-10-22T18:47:43;13.00;99.90
43015;DHT22;28637;50.554;7.032;2022-10-22T18:52:44;13.00;99.90
43015;DHT22;28637;50.554;7.032;2022-10-22T18:57:45;12.90;99.90
43015;DHT22;28637;50.554;7.032;2022-10-22T19:02:45;12.80;99.90
43015;DHT22;28637;50.554;7.032;2022-10-22T19:07:48;12.70;99.90
43015;DHT22;28637;50.554;7.032;2022-10-22T19:12:49;12.70;99.90
43015;DHT22;28637;50.554;7.032;2022-10-22T19:17:49;12.70;99.90
43015;DHT22;28637;50.554;7.032;2022-10-22T19:22:50;12.50;99.90
43015;DHT22;28637;50.554;7.032;2022-10-22T19:27:52;12.50;99.90
43015;DHT22;28637;50.554;7.032;2022-10-22T19:32:53;12.40;99.90
43015;DHT22;28637;50.554;7.032;2022-10-22T19:37:54;12.30;99.90
43015;DHT22;28637;50.554;7.032;2022-10-22T19:42:55;12.20;99.90
43015;DHT22;28637;50.554;7.032;2022-10-22T19:47:55;12.10;99.90
43015;DHT22;28637;50.554;7.032;2022-10-22T19:52:56;11.90;99.90
43015;DHT22;28637;50.554;7.032;2022-10-22T19:57:57;11.80;99.90
43015;DHT22;28637;50.554;7.032;2022-10-22T20:02:57;11.80;99.90
43015;DHT22;28637;50.554;7.032;2022-10-22T20:07:59;11.80;99.90
43015;DHT22;28637;50.554;7.032;2022-10-22T20:13:00;11.70;99.90
43015;DHT22;28637;50.554;7.032;2022-10-22T20:18:00;11.70;99.90
43015;DHT22;28637;50.554;7.032;2022-10-22T20:23:01;11.70;99.90
43015;DHT22;28637;50.554;7.032;2022-10-22T20:28:02;11.70;99.90
43015;DHT22;28637;50.554;7.032;2022-10-22T20:33:03;11.80;99.90
43015;DHT22;28637;50.554;7.032;2022-10-22T20:38:05;11.80;99.90
43015;DHT22;28637;50.554;7.032;2022-10-22T20:43:05;11.80;99.90
43015;DHT22;28637;50.554;7.032;2022-10-22T20:48:06;11.80;99.90
43015;DHT22;28637;50.554;7.032;2022-10-22T20:53:07;11.80;99.90
43015;DHT22;28637;50.554;7.032;2022-10-22T20:58:08;11.70;99.90
43015;DHT22;28637;50.554;7.032;2022-10-22T21:03:08;11.60;99.90
43015;DHT22;28637;50.554;7.032;2022-10-22T21:08:09;11.50;99.90
43015;DHT22;28637;50.554;7.032;2022-10-22T21:13:16;11.40;99.90
43015;DHT22;28637;50.554;7.032;2022-10-22T21:18:18;11.40;99.90
43015;DHT22;28637;50.554;7.032;2022-10-22T21:23:19;11.30;99.90
43015;DHT22;28637;50.554;7.032;2022-10-22T21:28:20;11.30;99.90
43015;DHT22;28637;50.554;7.032;2022-10-22T21:33:21;11.30;99.90
43015;DHT22;28637;50.554;7.032;2022-10-22T21:38:22;11.20;99.90
43015;DHT22;28637;50.554;7.032;2022-10-22T21:43:23;11.20;99.90
43015;DHT22;28637;50.554;7.032;2022-10-22T21:48:24;11.20;99.90
43015;DHT22;28637;50.554;7.032;2022-10-22T21:53:25;11.20;99.90
43015;DHT22;28637;50.554;7.032;2022-10-22T21:58:25;11.20;99.90
43015;DHT22;28637;50.554;7.032;2022-10-22T22:03:26;11.20;99.90
43015;DHT22;28637;50.554;7.032;2022-10-22T22:08:27;11.20;99.90
43015;DHT22;28637;50.554;7.032;2022-10-22T22:13:28;11.30;99.90
43015;DHT22;28637;50.554;7.032;2022-10-22T22:18:29;11.30;99.90
43015;DHT22;28637;50.554;7.032;2022-10-22T22:23:30;11.20;99.90
43015;DHT22;28637;50.554;7.032;2022-10-22T22:28:32;11.30;99.90
43015;DHT22;28637;50.554;7.032;2022-10-22T22:33:32;11.30;99.90
43015;DHT22;28637;50.554;7.032;2022-10-22T22:38:33;11.30;99.90
43015;DHT22;28637;50.554;7.032;2022-10-22T22:43:35;11.20;99.90
43015;DHT22;28637;50.554;7.032;2022-10-22T22:48:37;11.30;99.90
43015;DHT22;28637;50.554;7.032;2022-10-22T22:53:37;11.30;99.90
43015;DHT22;28637;50.554;7.032;2022-10-22T22:58:39;11.20;99.90
43015;DHT22;28637;50.554;7.032;2022-10-22T23:03:41;11.20;99.90
43015;DHT22;28637;50.554;7.032;2022-10-22T23:08:42;11.20;99.90
43015;DHT22;28637;50.554;7.032;2022-10-22T23:13:43;11.20;99.90
43015;DHT22;28637;50.554;7.032;2022-10-22T23:18:45;11.20;99.90
43015;DHT22;28637;50.554;7.032;2022-10-22T23:23:48;11.10;99.90
43015;DHT22;28637;50.554;7.032;2022-10-22T23:28:49;11.10;99.90
43015;DHT22;28637;50.554;7.032;2022-10-22T23:33:50;11.10;99.90
43015;DHT22;28637;50.554;7.032;2022-10-22T23:38:51;11.10;99.90
43015;DHT22;28637;50.554;7.032;2022-10-22T23:43:51;11.00;99.90
43015;DHT22;28637;50.554;7.032;2022-10-22T23:48:52;11.00;99.90
43015;DHT22;28637;50.554;7.032;2022-10-22T23:53:55;11.00;99.90
43015;DHT22;28637;50.554;7.032;2022-10-22T23:58:56;11.10;99.90
